UAL785 KBFM-KJAN
Flight info
| Callsign | UAL785 |
|---|---|
| Flight time | 0h 40m |
| Altitude | 24000 |
| Route | WIGGO CIAAA |
| Aircraft | B737/M-SDE2E3FGHIRWXY/LB1 |
Departure
| Time | 2026-04-26 13:36 |
|---|---|
| Airport | Mobile Downtown Airport (KBFM) |
Arrival
| Time | 2026-04-26 14:17 |
|---|---|
| Airport | Jackson-Medgar Wiley Evers International Airport (KJAN) |
| Time | Latitude | Longitude | Altitude | Speed | Heading |
|---|---|---|---|---|---|
| 2026-04-26 13:19 | 30.64030 | -88.07327 | 35 ft | 0 kts | 108° |
| 2026-04-26 13:23 | 30.64024 | -88.07323 | 35 ft | 3 kts | 153° |
| 2026-04-26 13:23 | 30.64009 | -88.07371 | 35 ft | 13 kts | 274° |
| 2026-04-26 13:23 | 30.64044 | -88.07508 | 35 ft | 22 kts | 285° |
| 2026-04-26 13:23 | 30.63956 | -88.07621 | 36 ft | 22 kts | 198° |
| 2026-04-26 13:24 | 30.63815 | -88.07620 | 36 ft | 21 kts | 153° |
| 2026-04-26 13:24 | 30.63687 | -88.07545 | 37 ft | 20 kts | 153° |
| 2026-04-26 13:24 | 30.63568 | -88.07482 | 36 ft | 12 kts | 185° |
| 2026-04-26 13:24 | 30.63511 | -88.07546 | 35 ft | 11 kts | 234° |
| 2026-04-26 13:25 | 30.63465 | -88.07620 | 37 ft | 11 kts | 234° |
| 2026-04-26 13:25 | 30.63416 | -88.07694 | 39 ft | 15 kts | 232° |
| 2026-04-26 13:25 | 30.63337 | -88.07813 | 36 ft | 21 kts | 232° |
| 2026-04-26 13:25 | 30.63314 | -88.07848 | 34 ft | 0 kts | 232° |
| 2026-04-26 13:26 | 30.63296 | -88.07875 | 35 ft | 12 kts | 232° |
| 2026-04-26 13:27 | 30.63201 | -88.07883 | 35 ft | 21 kts | 142° |
| 2026-04-26 13:27 | 30.63024 | -88.07704 | 31 ft | 45 kts | 138° |
| 2026-04-26 13:27 | 30.62771 | -88.07449 | 31 ft | 47 kts | 139° |
| 2026-04-26 13:27 | 30.62693 | -88.07330 | 32 ft | 15 kts | 79° |
| 2026-04-26 13:28 | 30.62793 | -88.07218 | 33 ft | 21 kts | 39° |
| 2026-04-26 13:28 | 30.62879 | -88.07122 | 35 ft | 13 kts | 75° |
| 2026-04-26 13:28 | 30.62861 | -88.07095 | 34 ft | 11 kts | 147° |
| 2026-04-26 13:28 | 30.62719 | -88.07017 | 36 ft | 28 kts | 149° |
| 2026-04-26 13:29 | 30.62561 | -88.06900 | 33 ft | 28 kts | 142° |
| 2026-04-26 13:29 | 30.62450 | -88.06789 | 31 ft | 35 kts | 139° |
| 2026-04-26 13:29 | 30.62162 | -88.06496 | 31 ft | 46 kts | 139° |
| 2026-04-26 13:29 | 30.61931 | -88.06262 | 32 ft | 43 kts | 139° |
| 2026-04-26 13:30 | 30.61716 | -88.06047 | 29 ft | 39 kts | 138° |
| 2026-04-26 13:30 | 30.61528 | -88.05853 | 30 ft | 25 kts | 145° |
| 2026-04-26 13:30 | 30.61427 | -88.05871 | 24 ft | 14 kts | 227° |
| 2026-04-26 13:30 | 30.61393 | -88.05917 | 27 ft | 0 kts | 232° |
| 2026-04-26 13:35 | 30.61390 | -88.05923 | 26 ft | 0 kts | 233° |
| 2026-04-26 13:35 | 30.61373 | -88.05951 | 23 ft | 15 kts | 236° |
| 2026-04-26 13:35 | 30.61416 | -88.06081 | 24 ft | 41 kts | 319° |
| 2026-04-26 13:36 | 30.61668 | -88.06338 | 29 ft | 104 kts | 319° |
| 2026-04-26 13:36 | 30.62421 | -88.07108 | 113 ft | 177 kts | 318° |
| 2026-04-26 13:36 | 30.63423 | -88.08171 | 804 ft | 211 kts | 318° |
| 2026-04-26 13:36 | 30.64576 | -88.09332 | 1371 ft | 243 kts | 319° |
| 2026-04-26 13:37 | 30.66331 | -88.11035 | 2902 ft | 251 kts | 319° |
| 2026-04-26 13:37 | 30.67231 | -88.11907 | 3913 ft | 247 kts | 319° |
| 2026-04-26 13:37 | 30.68537 | -88.13190 | 5316 ft | 252 kts | 319° |
| 2026-04-26 13:37 | 30.70040 | -88.14679 | 5110 ft | 317 kts | 319° |
| 2026-04-26 13:38 | 30.71718 | -88.16365 | 6305 ft | 320 kts | 316° |
| 2026-04-26 13:38 | 30.72974 | -88.18442 | 7883 ft | 315 kts | 291° |
| 2026-04-26 13:38 | 30.73270 | -88.20938 | 9452 ft | 311 kts | 270° |
| 2026-04-26 13:38 | 30.73237 | -88.23404 | 10941 ft | 299 kts | 275° |
| 2026-04-26 13:39 | 30.73354 | -88.25773 | 12370 ft | 288 kts | 276° |
| 2026-04-26 13:39 | 30.73506 | -88.28066 | 13624 ft | 284 kts | 276° |
| 2026-04-26 13:39 | 30.73667 | -88.30368 | 14519 ft | 287 kts | 276° |
| 2026-04-26 13:39 | 30.73827 | -88.32693 | 15406 ft | 291 kts | 275° |
| 2026-04-26 13:40 | 30.73984 | -88.35042 | 16430 ft | 292 kts | 275° |
| 2026-04-26 13:40 | 30.74136 | -88.37369 | 17470 ft | 293 kts | 275° |
| 2026-04-26 13:40 | 30.74289 | -88.39747 | 18425 ft | 297 kts | 274° |
| 2026-04-26 13:40 | 30.74441 | -88.42151 | 19240 ft | 300 kts | 275° |
| 2026-04-26 13:41 | 30.74592 | -88.44578 | 20054 ft | 303 kts | 275° |
| 2026-04-26 13:41 | 30.74745 | -88.47030 | 20864 ft | 306 kts | 275° |
| 2026-04-26 13:41 | 30.74897 | -88.49507 | 21654 ft | 309 kts | 276° |
| 2026-04-26 13:41 | 30.75051 | -88.52003 | 22422 ft | 312 kts | 276° |
| 2026-04-26 13:42 | 30.75205 | -88.54531 | 23187 ft | 315 kts | 276° |
| 2026-04-26 13:42 | 30.75359 | -88.57053 | 23794 ft | 321 kts | 276° |
| 2026-04-26 13:42 | 30.75522 | -88.59717 | 23947 ft | 341 kts | 276° |
| 2026-04-26 13:42 | 30.75696 | -88.62555 | 23994 ft | 363 kts | 276° |
| 2026-04-26 13:43 | 30.75879 | -88.65569 | 24002 ft | 384 kts | 276° |
| 2026-04-26 13:43 | 30.76070 | -88.68750 | 24001 ft | 404 kts | 276° |
| 2026-04-26 13:43 | 30.76266 | -88.72053 | 23992 ft | 415 kts | 276° |
| 2026-04-26 13:43 | 30.76464 | -88.75431 | 23985 ft | 423 kts | 276° |
| 2026-04-26 13:44 | 30.76664 | -88.78868 | 23978 ft | 429 kts | 276° |
| 2026-04-26 13:44 | 30.76868 | -88.82352 | 23970 ft | 435 kts | 276° |
| 2026-04-26 13:44 | 30.77070 | -88.85835 | 23970 ft | 439 kts | 275° |
| 2026-04-26 13:44 | 30.77276 | -88.89394 | 23971 ft | 443 kts | 275° |
| 2026-04-26 13:45 | 30.77484 | -88.92982 | 23968 ft | 446 kts | 275° |
| 2026-04-26 13:45 | 30.77691 | -88.96592 | 23968 ft | 449 kts | 275° |
| 2026-04-26 13:45 | 30.77899 | -89.00223 | 23968 ft | 450 kts | 275° |
| 2026-04-26 13:45 | 30.78106 | -89.03858 | 23967 ft | 451 kts | 275° |
| 2026-04-26 13:46 | 30.78313 | -89.07500 | 23968 ft | 452 kts | 275° |
| 2026-04-26 13:46 | 30.78520 | -89.11145 | 23969 ft | 452 kts | 275° |
| 2026-04-26 13:46 | 30.78735 | -89.14742 | 23969 ft | 452 kts | 277° |
| 2026-04-26 13:46 | 30.79410 | -89.18285 | 23965 ft | 450 kts | 291° |
| 2026-04-26 13:47 | 30.80770 | -89.21552 | 23973 ft | 449 kts | 301° |
| 2026-04-26 13:47 | 30.82623 | -89.24478 | 23968 ft | 450 kts | 312° |
| 2026-04-26 13:47 | 30.84911 | -89.26965 | 23981 ft | 450 kts | 317° |
| 2026-04-26 13:47 | 30.87241 | -89.29399 | 23972 ft | 450 kts | 316° |
| 2026-04-26 13:48 | 30.89551 | -89.31854 | 23969 ft | 450 kts | 316° |
| 2026-04-26 13:48 | 30.91810 | -89.34284 | 23970 ft | 449 kts | 316° |
| 2026-04-26 13:48 | 30.94134 | -89.36803 | 23976 ft | 449 kts | 316° |
| 2026-04-26 13:48 | 30.96386 | -89.39253 | 23980 ft | 449 kts | 316° |
| 2026-04-26 13:49 | 30.98660 | -89.41734 | 23987 ft | 448 kts | 316° |
| 2026-04-26 13:49 | 31.00936 | -89.44218 | 23992 ft | 448 kts | 316° |
| 2026-04-26 13:49 | 31.03210 | -89.46702 | 23991 ft | 448 kts | 316° |
| 2026-04-26 13:49 | 31.05482 | -89.49185 | 23994 ft | 448 kts | 316° |
| 2026-04-26 13:50 | 31.07754 | -89.51668 | 23996 ft | 448 kts | 316° |
| 2026-04-26 13:50 | 31.10027 | -89.54153 | 24001 ft | 448 kts | 316° |
| 2026-04-26 13:50 | 31.12299 | -89.56639 | 23994 ft | 448 kts | 316° |
| 2026-04-26 13:50 | 31.14571 | -89.59126 | 23987 ft | 448 kts | 316° |
| 2026-04-26 13:51 | 31.16811 | -89.61580 | 23984 ft | 448 kts | 316° |
| 2026-04-26 13:51 | 31.19083 | -89.64071 | 23982 ft | 448 kts | 316° |
| 2026-04-26 13:51 | 31.21357 | -89.66565 | 23974 ft | 448 kts | 316° |
| 2026-04-26 13:51 | 31.23625 | -89.69055 | 23965 ft | 443 kts | 316° |
| 2026-04-26 13:52 | 31.25818 | -89.71463 | 23954 ft | 422 kts | 316° |
| 2026-04-26 13:52 | 31.27898 | -89.73750 | 23947 ft | 399 kts | 316° |
| 2026-04-26 13:52 | 31.29875 | -89.75924 | 23952 ft | 383 kts | 316° |
| 2026-04-26 13:52 | 31.31799 | -89.78042 | 23907 ft | 376 kts | 316° |
| 2026-04-26 13:53 | 31.33671 | -89.80104 | 23500 ft | 374 kts | 317° |
| 2026-04-26 13:53 | 31.35563 | -89.82188 | 22847 ft | 373 kts | 316° |
| 2026-04-26 13:53 | 31.37456 | -89.84274 | 22129 ft | 374 kts | 316° |
| 2026-04-26 13:53 | 31.39349 | -89.86362 | 21508 ft | 373 kts | 316° |
| 2026-04-26 13:54 | 31.41228 | -89.88435 | 20942 ft | 370 kts | 315° |
| 2026-04-26 13:54 | 31.43091 | -89.90493 | 20422 ft | 367 kts | 315° |
| 2026-04-26 13:54 | 31.44939 | -89.92535 | 19890 ft | 364 kts | 315° |
| 2026-04-26 13:55 | 31.48597 | -89.96581 | 18861 ft | 359 kts | 314° |
| 2026-04-26 13:55 | 31.49795 | -89.97907 | 18531 ft | 357 kts | 314° |
| 2026-04-26 13:55 | 31.53956 | -90.02517 | 17258 ft | 352 kts | 314° |
| 2026-04-26 13:56 | 31.55729 | -90.04483 | 16687 ft | 350 kts | 314° |
| 2026-04-26 13:56 | 31.57493 | -90.06440 | 16128 ft | 348 kts | 314° |
| 2026-04-26 13:56 | 31.59250 | -90.08390 | 15584 ft | 347 kts | 315° |
| 2026-04-26 13:56 | 31.60999 | -90.10333 | 15036 ft | 346 kts | 315° |
| 2026-04-26 13:57 | 31.62740 | -90.12268 | 14510 ft | 344 kts | 315° |
| 2026-04-26 13:57 | 31.64476 | -90.14199 | 13980 ft | 343 kts | 315° |
| 2026-04-26 13:57 | 31.66183 | -90.16098 | 13436 ft | 342 kts | 315° |
| 2026-04-26 13:57 | 31.67907 | -90.18016 | 12933 ft | 340 kts | 315° |
| 2026-04-26 13:58 | 31.69615 | -90.19909 | 12453 ft | 337 kts | 316° |
| 2026-04-26 13:58 | 31.71572 | -90.21421 | 11902 ft | 340 kts | 334° |
| 2026-04-26 13:58 | 31.73809 | -90.22294 | 11445 ft | 338 kts | 346° |
| 2026-04-26 13:58 | 31.76143 | -90.22577 | 10960 ft | 339 kts | 359° |
| 2026-04-26 13:59 | 31.78494 | -90.22479 | 10501 ft | 337 kts | 1° |
| 2026-04-26 13:59 | 31.80800 | -90.22334 | 10428 ft | 325 kts | 1° |
| 2026-04-26 13:59 | 31.83060 | -90.22185 | 10481 ft | 329 kts | 1° |
| 2026-04-26 14:00 | 31.90008 | -90.21201 | 10471 ft | 339 kts | 21° |
| 2026-04-26 14:00 | 31.92103 | -90.20044 | 10395 ft | 324 kts | 25° |
| 2026-04-26 14:00 | 31.93409 | -90.19270 | 10289 ft | 311 kts | 25° |
| 2026-04-26 14:01 | 31.95883 | -90.17774 | 10138 ft | 288 kts | 25° |
| 2026-04-26 14:01 | 31.97611 | -90.16719 | 10034 ft | 272 kts | 25° |
| 2026-04-26 14:01 | 31.99241 | -90.15714 | 9934 ft | 258 kts | 25° |
| 2026-04-26 14:01 | 32.00790 | -90.14754 | 9748 ft | 248 kts | 25° |
| 2026-04-26 14:02 | 32.02282 | -90.13827 | 9447 ft | 242 kts | 25° |
| 2026-04-26 14:02 | 32.03721 | -90.12930 | 9331 ft | 227 kts | 25° |
| 2026-04-26 14:02 | 32.05099 | -90.12067 | 8962 ft | 223 kts | 25° |
| 2026-04-26 14:02 | 32.06470 | -90.11209 | 8517 ft | 223 kts | 25° |
| 2026-04-26 14:03 | 32.07836 | -90.10354 | 8203 ft | 221 kts | 25° |
| 2026-04-26 14:03 | 32.09181 | -90.09510 | 7933 ft | 218 kts | 25° |
| 2026-04-26 14:03 | 32.10512 | -90.08671 | 7642 ft | 216 kts | 25° |
| 2026-04-26 14:03 | 32.11830 | -90.07842 | 7357 ft | 214 kts | 25° |
| 2026-04-26 14:04 | 32.13114 | -90.07033 | 7083 ft | 211 kts | 25° |
| 2026-04-26 14:04 | 32.14402 | -90.06221 | 6801 ft | 209 kts | 25° |
| 2026-04-26 14:04 | 32.15674 | -90.05418 | 6588 ft | 203 kts | 25° |
| 2026-04-26 14:04 | 32.16886 | -90.04647 | 6430 ft | 196 kts | 25° |
| 2026-04-26 14:05 | 32.18074 | -90.03887 | 6184 ft | 193 kts | 25° |
| 2026-04-26 14:05 | 32.19251 | -90.03132 | 5870 ft | 193 kts | 25° |
| 2026-04-26 14:05 | 32.20430 | -90.02378 | 5529 ft | 193 kts | 25° |
| 2026-04-26 14:05 | 32.21612 | -90.01624 | 5228 ft | 192 kts | 25° |
| 2026-04-26 14:06 | 32.22751 | -90.00895 | 5055 ft | 183 kts | 25° |
| 2026-04-26 14:06 | 32.23851 | -90.00188 | 4758 ft | 183 kts | 25° |
| 2026-04-26 14:06 | 32.24969 | -89.99473 | 4444 ft | 183 kts | 25° |
| 2026-04-26 14:06 | 32.26087 | -89.98764 | 4184 ft | 179 kts | 25° |
| 2026-04-26 14:07 | 32.27166 | -89.98085 | 3940 ft | 175 kts | 25° |
| 2026-04-26 14:07 | 32.28230 | -89.97418 | 3660 ft | 172 kts | 25° |
| 2026-04-26 14:07 | 32.29344 | -89.96902 | 3280 ft | 173 kts | 360° |
| 2026-04-26 14:07 | 32.30478 | -89.97267 | 2944 ft | 169 kts | 334° |
| 2026-04-26 14:08 | 32.31606 | -89.97701 | 2604 ft | 172 kts | 343° |
| 2026-04-26 14:08 | 32.32721 | -89.98087 | 2348 ft | 168 kts | 341° |
| 2026-04-26 14:08 | 32.33845 | -89.98491 | 2217 ft | 168 kts | 341° |
| 2026-04-26 14:08 | 32.34967 | -89.98897 | 2217 ft | 169 kts | 341° |
| 2026-04-26 14:09 | 32.36091 | -89.99306 | 2189 ft | 168 kts | 341° |
| 2026-04-26 14:09 | 32.37202 | -89.99707 | 2182 ft | 166 kts | 341° |
| 2026-04-26 14:09 | 32.38315 | -90.00128 | 2189 ft | 169 kts | 339° |
| 2026-04-26 14:09 | 32.39425 | -90.00598 | 2196 ft | 170 kts | 338° |
| 2026-04-26 14:10 | 32.40542 | -90.01079 | 2200 ft | 173 kts | 338° |
| 2026-04-26 14:10 | 32.41668 | -90.01565 | 2182 ft | 171 kts | 338° |
| 2026-04-26 14:10 | 32.42769 | -90.02039 | 2173 ft | 166 kts | 338° |
| 2026-04-26 14:10 | 32.43840 | -90.02504 | 2192 ft | 166 kts | 338° |
| 2026-04-26 14:11 | 32.46057 | -90.03467 | 2204 ft | 172 kts | 338° |
| 2026-04-26 14:11 | 32.47183 | -90.03958 | 2191 ft | 173 kts | 338° |
| 2026-04-26 14:11 | 32.48297 | -90.04446 | 2181 ft | 169 kts | 336° |
| 2026-04-26 14:12 | 32.49140 | -90.05310 | 2160 ft | 163 kts | 285° |
| 2026-04-26 14:12 | 32.49019 | -90.06669 | 2176 ft | 178 kts | 234° |
| 2026-04-26 14:12 | 32.48131 | -90.07555 | 2186 ft | 163 kts | 208° |
| 2026-04-26 14:12 | 32.47176 | -90.08166 | 2168 ft | 154 kts | 207° |
| 2026-04-26 14:13 | 32.45215 | -90.09412 | 2091 ft | 162 kts | 208° |
| 2026-04-26 14:13 | 32.44248 | -90.10034 | 2075 ft | 155 kts | 208° |
| 2026-04-26 14:13 | 32.43293 | -90.10644 | 2104 ft | 158 kts | 208° |
| 2026-04-26 14:14 | 32.42325 | -90.11269 | 2081 ft | 156 kts | 208° |
| 2026-04-26 14:14 | 32.41341 | -90.11798 | 2082 ft | 156 kts | 190° |
| 2026-04-26 14:14 | 32.40349 | -90.11472 | 2109 ft | 155 kts | 139° |
| 2026-04-26 14:14 | 32.39499 | -90.10656 | 2074 ft | 159 kts | 162° |
| 2026-04-26 14:15 | 32.38465 | -90.10528 | 2108 ft | 153 kts | 177° |
| 2026-04-26 14:15 | 32.37501 | -90.10078 | 2120 ft | 151 kts | 142° |
| 2026-04-26 14:15 | 32.36620 | -90.09317 | 2058 ft | 159 kts | 156° |
| 2026-04-26 14:15 | 32.35571 | -90.08958 | 1627 ft | 161 kts | 166° |
| 2026-04-26 14:16 | 32.34504 | -90.08570 | 1213 ft | 161 kts | 158° |
| 2026-04-26 14:16 | 32.33442 | -90.08047 | 656 ft | 168 kts | 158° |
| 2026-04-26 14:16 | 32.32366 | -90.07553 | 322 ft | 155 kts | 158° |
| 2026-04-26 14:16 | 32.31534 | -90.07159 | 334 ft | 97 kts | 158° |
| 2026-04-26 14:17 | 32.31084 | -90.06947 | 344 ft | 47 kts | 158° |
| 2026-04-26 14:17 | 32.30829 | -90.06827 | 349 ft | 37 kts | 158° |
| 2026-04-26 14:17 | 32.30724 | -90.06837 | 354 ft | 15 kts | 232° |
| 2026-04-26 14:17 | 32.30684 | -90.06945 | 359 ft | 14 kts | 248° |
| 2026-04-26 14:18 | 32.30717 | -90.07032 | 349 ft | 14 kts | 334° |
| 2026-04-26 14:18 | 32.30803 | -90.07072 | 357 ft | 13 kts | 337° |
| 2026-04-26 14:18 | 32.30874 | -90.07134 | 350 ft | 13 kts | 309° |
| 2026-04-26 14:18 | 32.30945 | -90.07234 | 346 ft | 22 kts | 323° |
| 2026-04-26 14:19 | 32.31059 | -90.07303 | 347 ft | 12 kts | 333° |
| 2026-04-26 14:19 | 32.31118 | -90.07334 | 346 ft | 6 kts | 334° |
| 2026-04-26 14:19 | 32.31131 | -90.07371 | 351 ft | 6 kts | 243° |
| 2026-04-26 14:19 | 32.31117 | -90.07387 | 348 ft | 0 kts | 225° |